createdAt,value
2023-05-16T00:01:36.522Z,100430.79
2023-05-16T00:04:04.400Z,100432.02
2023-05-16T00:06:32.277Z,100432.45
2023-05-16T00:09:00.524Z,100430.98
2023-05-16T00:11:27.789Z,100429.30
2023-05-16T00:13:55.489Z,100429.34
2023-05-16T00:16:22.833Z,100431.48
2023-05-16T00:18:50.052Z,100431.08
2023-05-16T00:21:17.356Z,100429.61
2023-05-16T00:23:44.823Z,100427.92
2023-05-16T00:26:11.952Z,100426.58
2023-05-16T00:28:39.718Z,100428.84
2023-05-16T00:31:07.256Z,100428.84
2023-05-16T00:33:35.189Z,100427.65
2023-05-16T00:36:02.273Z,100423.90
2023-05-16T00:38:30.027Z,100425.99
2023-05-16T00:40:57.278Z,100424.35
2023-05-16T00:43:24.366Z,100423.84
2023-05-16T00:45:51.827Z,100425.34
2023-05-16T00:48:19.462Z,100418.46
2023-05-16T00:50:47.593Z,100416.63
2023-05-16T00:53:15.333Z,100418.10
2023-05-16T00:55:43.178Z,100416.52
2023-05-16T00:58:11.931Z,100410.05
2023-05-16T01:00:39.094Z,100406.95
2023-05-16T01:03:07.036Z,100405.39
2023-05-16T01:05:34.809Z,100404.55
2023-05-16T01:08:02.180Z,100400.94
2023-05-16T01:10:44.060Z,100404.36
2023-05-16T01:13:29.058Z,100403.56
2023-05-16T01:16:04.853Z,100404.34
2023-05-16T01:18:52.806Z,100408.45
2023-05-16T01:21:39.221Z,100407.79
2023-05-16T01:24:53.755Z,100409.71
2023-05-16T01:27:24.219Z,100413.05
2023-05-16T01:29:56.622Z,100413.31
2023-05-16T01:32:23.915Z,100409.89
2023-05-16T01:34:52.806Z,100408.98
2023-05-16T01:37:38.595Z,100404.96
2023-05-16T01:40:18.237Z,100410.90
2023-05-16T01:42:47.695Z,100411.80
2023-05-16T01:45:21.480Z,100412.45
2023-05-16T01:47:57.001Z,100407.42
2023-05-16T01:50:26.630Z,100411.38
2023-05-16T01:53:05.964Z,100406.65
2023-05-16T01:55:52.088Z,100407.13
2023-05-16T01:58:26.740Z,100409.48
2023-05-16T02:00:55.370Z,100407.89
2023-05-16T02:03:22.850Z,100410.25
2023-05-16T02:05:50.312Z,100407.90
2023-05-16T02:08:17.864Z,100408.83
2023-05-16T02:10:44.966Z,100416.19
2023-05-16T02:13:12.338Z,100416.25
2023-05-16T02:15:39.594Z,100418.93
2023-05-16T02:18:07.071Z,100419.48
2023-05-16T02:20:34.216Z,100416.55
2023-05-16T02:23:03.758Z,100419.33
2023-05-16T02:25:32.824Z,100416.57
2023-05-16T02:27:59.852Z,100414.60
2023-05-16T02:30:27.136Z,100418.44
2023-05-16T02:32:54.586Z,100417.83
2023-05-16T02:35:22.570Z,100416.59
2023-05-16T02:37:49.729Z,100416.79
2023-05-16T02:40:17.621Z,100412.96
2023-05-16T02:42:44.641Z,100413.64
2023-05-16T02:45:12.665Z,100416.92
2023-05-16T02:47:39.932Z,100417.13
2023-05-16T02:50:07.449Z,100412.92
2023-05-16T02:52:35.529Z,100415.07
2023-05-16T02:57:33.072Z,100415.46
2023-05-16T03:00:00.392Z,100420.96
2023-05-16T03:02:27.602Z,100417.29
2023-05-16T03:04:55.678Z,100417.91
2023-05-16T03:07:22.837Z,100426.39
2023-05-16T03:09:50.169Z,100427.55
2023-05-16T03:12:18.951Z,100431.77
2023-05-16T03:14:47.170Z,100434.89
2023-05-16T03:17:15.109Z,100433.12
2023-05-16T03:19:42.136Z,100431.86
2023-05-16T03:22:09.508Z,100433.00
2023-05-16T03:24:36.828Z,100437.23
2023-05-16T03:27:05.153Z,100434.65
2023-05-16T03:29:33.120Z,100427.50
2023-05-16T03:32:00.464Z,100428.98
2023-05-16T03:34:28.539Z,100427.17
2023-05-16T03:36:55.831Z,100432.10
2023-05-16T03:39:23.458Z,100434.41
2023-05-16T03:41:52.172Z,100435.48
2023-05-16T03:44:19.208Z,100436.16
2023-05-16T03:46:46.802Z,100435.80
2023-05-16T03:49:13.791Z,100440.89
2023-05-16T03:51:41.362Z,100441.45
2023-05-16T03:54:08.482Z,100443.17
2023-05-16T03:56:35.509Z,100444.16
2023-05-16T03:59:02.873Z,100445.36
2023-05-16T04:01:30.434Z,100445.63
2023-05-16T04:03:57.698Z,100438.71
2023-05-16T04:06:25.068Z,100440.66
2023-05-16T04:08:52.651Z,100439.33
2023-05-16T04:11:19.859Z,100437.86
2023-05-16T04:13:46.949Z,100438.67
2023-05-16T04:16:14.554Z,100439.27
2023-05-16T04:18:42.216Z,100433.53
2023-05-16T04:21:11.062Z,100439.16
2023-05-16T04:23:38.605Z,100435.02
2023-05-16T04:26:05.725Z,100435.84
2023-05-16T04:28:33.421Z,100435.98
2023-05-16T04:31:00.704Z,100435.27
2023-05-16T04:33:27.791Z,100438.12
2023-05-16T04:35:54.965Z,100436.95
2023-05-16T04:38:22.751Z,100435.61
2023-05-16T04:40:51.138Z,100438.89
2023-05-16T04:43:19.689Z,100437.45
2023-05-16T04:45:47.328Z,100439.94
2023-05-16T04:48:15.633Z,100441.20
2023-05-16T04:50:43.114Z,100446.48
2023-05-16T04:53:10.532Z,100445.66
2023-05-16T04:55:37.775Z,100441.42
2023-05-16T04:58:05.592Z,100443.30
2023-05-16T05:00:33.264Z,100433.91
2023-05-16T05:03:00.812Z,100433.98
2023-05-16T05:05:28.232Z,100439.54
2023-05-16T05:07:56.138Z,100433.98
2023-05-16T05:10:23.420Z,100431.11
2023-05-16T05:12:50.947Z,100436.46
2023-05-16T05:15:18.090Z,100435.42
2023-05-16T05:17:45.888Z,100435.10
2023-05-16T05:20:13.403Z,100432.50
2023-05-16T05:22:40.896Z,100426.59
2023-05-16T05:25:08.908Z,100430.35
2023-05-16T05:27:36.211Z,100430.92
2023-05-16T05:30:04.268Z,100429.38
2023-05-16T05:32:31.643Z,100429.92
2023-05-16T05:34:59.144Z,100432.56
2023-05-16T05:37:27.205Z,100427.52
2023-05-16T05:39:54.264Z,100428.39
2023-05-16T05:42:21.461Z,100429.01
2023-05-16T05:44:48.558Z,100425.07
2023-05-16T05:47:15.955Z,100423.73
2023-05-16T05:49:43.192Z,100419.15
2023-05-16T05:52:10.898Z,100414.31
2023-05-16T05:54:38.093Z,100416.95
2023-05-16T05:57:05.708Z,100412.21
2023-05-16T05:59:33.012Z,100412.17
2023-05-16T06:02:00.205Z,100414.52
2023-05-16T06:04:27.355Z,100417.38
2023-05-16T06:06:54.529Z,100417.77
2023-05-16T06:09:22.389Z,100420.34
2023-05-16T06:11:50.856Z,100423.92
2023-05-16T06:14:17.932Z,100426.58
2023-05-16T06:16:45.288Z,100425.16
2023-05-16T06:19:16.354Z,100422.15
2023-05-16T06:21:45.088Z,100427.91
2023-05-16T06:24:12.932Z,100421.75
2023-05-16T06:26:40.272Z,100425.60
2023-05-16T06:29:07.715Z,100424.44
2023-05-16T06:31:35.177Z,100428.40
2023-05-16T06:34:02.309Z,100430.89
2023-05-16T06:36:29.458Z,100434.55
2023-05-16T06:38:57.086Z,100436.79
2023-05-16T06:41:24.241Z,100438.68
2023-05-16T06:43:52.031Z,100438.95
2023-05-16T06:46:19.409Z,100439.63
2023-05-16T06:48:46.614Z,100437.54
2023-05-16T06:51:14.298Z,100436.02
2023-05-16T06:53:41.595Z,100439.15
2023-05-16T06:56:09.010Z,100439.25
2023-05-16T06:58:36.375Z,100436.40
2023-05-16T07:01:03.687Z,100435.34
2023-05-16T07:03:32.232Z,100438.55
2023-05-16T07:06:00.044Z,100438.27
2023-05-16T07:08:28.201Z,100440.66
2023-05-16T07:10:55.262Z,100443.66
2023-05-16T07:13:22.513Z,100444.90
2023-05-16T07:15:49.818Z,100442.09
2023-05-16T07:18:17.388Z,100446.79
2023-05-16T07:20:44.748Z,100446.92
2023-05-16T07:23:12.047Z,100446.50
2023-05-16T07:25:39.483Z,100444.54
2023-05-16T07:28:06.526Z,100446.52
2023-05-16T07:30:34.915Z,100443.09
2023-05-16T07:33:02.370Z,100443.91
2023-05-16T07:35:30.150Z,100449.94
2023-05-16T07:37:57.366Z,100453.86
2023-05-16T07:40:28.992Z,100451.54
2023-05-16T07:42:56.298Z,100450.15
2023-05-16T07:45:23.432Z,100450.53
2023-05-16T07:47:51.081Z,100450.02
2023-05-16T07:50:18.222Z,100449.13
2023-05-16T07:52:45.869Z,100450.02
2023-05-16T07:55:13.822Z,100450.28
2023-05-16T07:57:41.029Z,100448.80
2023-05-16T08:00:09.667Z,100448.13
2023-05-16T08:02:39.872Z,100445.08
2023-05-16T08:05:08.071Z,100441.46
2023-05-16T08:07:35.786Z,100444.59
2023-05-16T08:10:03.808Z,100442.96
2023-05-16T08:12:31.346Z,100443.75
2023-05-16T08:14:58.575Z,100446.28
2023-05-16T08:17:26.217Z,100445.09
2023-05-16T08:19:53.512Z,100448.35
2023-05-16T08:22:21.295Z,100441.80
2023-05-16T08:24:48.503Z,100453.17
2023-05-16T08:27:15.615Z,100448.16
2023-05-16T08:29:42.872Z,100448.14
2023-05-16T08:32:11.471Z,100445.14
2023-05-16T08:34:38.636Z,100450.70
2023-05-16T08:37:06.733Z,100452.73
2023-05-16T08:39:34.393Z,100451.48
2023-05-16T08:42:02.117Z,100448.72
2023-05-16T08:44:29.355Z,100454.30
2023-05-16T08:46:57.796Z,100447.86
2023-05-16T08:49:28.032Z,100454.75
2023-05-16T08:51:58.574Z,100450.51
2023-05-16T08:54:28.157Z,100447.27
2023-05-16T08:56:58.536Z,100439.02
2023-05-16T08:59:25.891Z,100439.84
2023-05-16T09:01:53.284Z,100435.69
2023-05-16T09:04:21.312Z,100433.88
2023-05-16T09:06:48.660Z,100431.54
2023-05-16T09:09:15.767Z,100431.59
2023-05-16T09:11:42.941Z,100432.23
2023-05-16T09:14:10.064Z,100435.23
2023-05-16T09:16:38.482Z,100440.69
2023-05-16T09:19:05.850Z,100438.10
2023-05-16T09:21:35.953Z,100428.39
2023-05-16T09:24:08.471Z,100425.88
2023-05-16T09:26:36.679Z,100429.61
2023-05-16T09:29:14.195Z,100430.92
2023-05-16T09:31:41.416Z,100430.83
2023-05-16T09:34:11.328Z,100428.65
2023-05-16T09:36:38.950Z,100428.06
2023-05-16T09:39:08.015Z,100426.90
2023-05-16T09:41:36.490Z,100425.11
2023-05-16T09:44:06.898Z,100424.88
2023-05-16T09:46:35.340Z,100424.44
2023-05-16T09:49:03.117Z,100420.70
2023-05-16T09:51:30.853Z,100417.88
2023-05-16T09:53:59.868Z,100417.09
2023-05-16T09:56:26.949Z,100417.69
2023-05-16T09:58:54.326Z,100418.65
2023-05-16T10:01:21.526Z,100417.98
2023-05-16T10:03:51.587Z,100414.92
2023-05-16T10:06:19.533Z,100416.32
2023-05-16T10:08:48.116Z,100413.80
2023-05-16T10:11:16.992Z,100412.20
2023-05-16T10:13:50.550Z,100413.08
2023-05-16T10:16:21.906Z,100409.46
2023-05-16T10:18:50.240Z,100411.77
2023-05-16T10:21:19.892Z,100412.37
2023-05-16T10:23:49.269Z,100411.16
2023-05-16T10:26:17.620Z,100409.16
2023-05-16T10:28:46.106Z,100408.23
2023-05-16T10:31:14.986Z,100404.94
2023-05-16T10:33:42.608Z,100407.08
2023-05-16T10:36:17.051Z,100403.78
2023-05-16T10:38:46.727Z,100398.05
2023-05-16T10:41:14.368Z,100398.73
2023-05-16T10:43:46.654Z,100393.50
2023-05-16T10:46:14.925Z,100392.29
2023-05-16T10:48:42.518Z,100393.63
2023-05-16T10:51:26.278Z,100390.30
2023-05-16T10:54:36.315Z,100388.25
2023-05-16T10:57:14.127Z,100384.78
2023-05-16T10:59:44.093Z,100382.36
2023-05-16T11:02:35.152Z,100384.98
2023-05-16T11:05:03.192Z,100381.87
2023-05-16T11:07:36.797Z,100378.32
2023-05-16T11:10:04.884Z,100380.20
2023-05-16T11:12:38.522Z,100379.98
2023-05-16T11:15:24.967Z,100375.20
2023-05-16T11:18:11.236Z,100372.72
2023-05-16T11:20:40.362Z,100367.98
2023-05-16T11:23:22.607Z,100363.23
2023-05-16T11:25:58.598Z,100360.73
2023-05-16T11:28:27.242Z,100360.52
2023-05-16T11:30:58.137Z,100360.70
2023-05-16T11:33:25.981Z,100357.72
2023-05-16T11:36:15.727Z,100361.02
2023-05-16T11:38:44.256Z,100357.77
2023-05-16T11:41:12.596Z,100356.95
2023-05-16T11:43:45.419Z,100359.59
2023-05-16T11:46:18.760Z,100358.71
2023-05-16T11:48:47.646Z,100354.24
2023-05-16T11:51:19.217Z,100351.76
2023-05-16T11:53:50.078Z,100354.80
2023-05-16T11:56:17.756Z,100350.60
2023-05-16T11:58:45.851Z,100347.95
2023-05-16T12:01:13.117Z,100342.09
2023-05-16T12:03:41.176Z,100340.61
2023-05-16T12:06:09.036Z,100333.01
2023-05-16T12:08:36.224Z,100334.59
2023-05-16T12:11:03.408Z,100336.56
2023-05-16T12:13:30.771Z,100336.13
2023-05-16T12:15:58.851Z,100342.11
2023-05-16T12:18:26.547Z,100343.46
2023-05-16T12:20:54.075Z,100343.05
2023-05-16T12:23:21.230Z,100343.19
2023-05-16T12:25:49.624Z,100342.54
2023-05-16T12:28:16.830Z,100343.23
2023-05-16T12:30:48.174Z,100338.46
2023-05-16T12:33:16.933Z,100338.06
2023-05-16T12:35:45.932Z,100334.73
2023-05-16T12:38:15.795Z,100331.73
2023-05-16T12:40:44.113Z,100331.19
2023-05-16T12:43:15.678Z,100334.16
2023-05-16T12:45:49.845Z,100338.95
2023-05-16T12:48:17.142Z,100336.33
2023-05-16T12:50:46.812Z,100336.23
2023-05-16T12:53:14.710Z,100335.42
2023-05-16T12:55:42.738Z,100331.09
2023-05-16T12:58:11.680Z,100331.77
2023-05-16T13:00:39.633Z,100331.86
2023-05-16T13:03:07.931Z,100325.36
2023-05-16T13:05:36.527Z,100320.27
2023-05-16T13:08:04.449Z,100319.16
2023-05-16T13:10:31.552Z,100317.42
2023-05-16T13:13:00.401Z,100318.33
2023-05-16T13:15:28.238Z,100319.44
2023-05-16T13:17:55.939Z,100321.58
2023-05-16T13:20:23.079Z,100321.55
2023-05-16T13:22:50.186Z,100324.45
2023-05-16T13:25:17.340Z,100324.36
2023-05-16T13:27:44.997Z,100321.84
2023-05-16T13:30:12.438Z,100317.47
2023-05-16T13:32:39.594Z,100318.24
2023-05-16T13:35:07.246Z,100319.89
2023-05-16T13:37:34.379Z,100315.68
2023-05-16T13:40:01.692Z,100316.75
2023-05-16T13:42:28.903Z,100316.98
2023-05-16T13:44:56.319Z,100316.94
2023-05-16T13:47:23.407Z,100319.75
2023-05-16T13:49:50.983Z,100322.40
2023-05-16T13:52:18.143Z,100327.96
2023-05-16T13:54:45.198Z,100332.33
2023-05-16T13:57:12.516Z,100338.17
2023-05-16T14:02:09.620Z,100342.73
2023-05-16T14:04:36.737Z,100344.98
2023-05-16T14:07:04.006Z,100348.29
2023-05-16T14:09:31.917Z,100350.27
2023-05-16T14:11:58.980Z,100353.66
2023-05-16T14:14:26.506Z,100356.34
2023-05-16T14:16:53.770Z,100349.46
2023-05-16T14:19:21.094Z,100349.36
2023-05-16T14:21:48.447Z,100343.45
2023-05-16T14:24:15.544Z,100348.73
2023-05-16T14:26:42.649Z,100342.67
2023-05-16T14:29:09.746Z,100345.62
2023-05-16T14:31:37.016Z,100346.88
2023-05-16T14:34:04.436Z,100341.79
2023-05-16T14:36:32.108Z,100342.18
2023-05-16T14:38:59.412Z,100340.39
2023-05-16T14:41:28.377Z,100338.88
2023-05-16T14:43:56.500Z,100341.96
2023-05-16T14:46:23.651Z,100340.13
2023-05-16T14:48:51.283Z,100342.92
2023-05-16T14:51:18.450Z,100344.55
2023-05-16T14:53:47.107Z,100351.86
2023-05-16T14:56:16.101Z,100350.42
2023-05-16T14:58:43.264Z,100351.01
2023-05-16T15:01:10.494Z,100352.29
2023-05-16T15:03:53.808Z,100354.83
2023-05-16T15:06:22.316Z,100351.30
2023-05-16T15:08:49.454Z,100351.71
2023-05-16T15:11:16.590Z,100353.86
2023-05-16T15:13:43.698Z,100349.09
2023-05-16T15:16:10.999Z,100353.17
2023-05-16T15:18:38.355Z,100357.27
2023-05-16T15:21:05.555Z,100358.59
2023-05-16T15:23:33.251Z,100353.97
2023-05-16T15:26:00.364Z,100349.41
2023-05-16T15:28:27.485Z,100347.52
2023-05-16T15:30:54.627Z,100348.83
2023-05-16T15:33:21.744Z,100350.58
2023-05-16T15:35:48.819Z,100353.20
2023-05-16T15:38:15.968Z,100359.91
2023-05-16T15:40:43.122Z,100361.45
2023-05-16T15:43:10.392Z,100363.23
2023-05-16T15:45:40.086Z,100363.21
2023-05-16T15:48:07.915Z,100367.23
2023-05-16T15:50:35.093Z,100364.35
2023-05-16T15:53:02.449Z,100363.26
2023-05-16T15:55:30.085Z,100362.20
2023-05-16T15:57:58.854Z,100360.40
2023-05-16T16:00:26.301Z,100362.08
2023-05-16T16:02:53.673Z,100367.27
2023-05-16T16:05:21.507Z,100370.66
2023-05-16T16:07:48.613Z,100368.90
2023-05-16T16:10:15.917Z,100376.89
2023-05-16T16:12:43.084Z,100371.95
2023-05-16T16:15:10.972Z,100374.52
2023-05-16T16:17:38.229Z,100376.80
2023-05-16T16:20:06.101Z,100376.91
2023-05-16T16:22:33.272Z,100381.73
2023-05-16T16:25:00.900Z,100384.11
2023-05-16T16:27:28.090Z,100384.97
2023-05-16T16:29:55.183Z,100387.28
2023-05-16T16:32:22.307Z,100390.72
2023-05-16T16:34:49.537Z,100394.68
2023-05-16T16:37:16.741Z,100393.70
2023-05-16T16:39:43.890Z,100396.55
2023-05-16T16:42:11.695Z,100397.23
2023-05-16T16:44:38.956Z,100397.81
2023-05-16T16:47:06.251Z,100396.80
2023-05-16T16:49:33.369Z,100400.52
2023-05-16T16:52:00.483Z,100396.65
2023-05-16T16:54:28.336Z,100399.42
2023-05-16T16:56:56.628Z,100398.91
2023-05-16T16:59:23.785Z,100400.79
2023-05-16T17:01:53.013Z,100404.43
2023-05-16T17:04:20.301Z,100405.65
2023-05-16T17:06:48.837Z,100411.39
2023-05-16T17:09:18.131Z,100413.77
2023-05-16T17:11:47.013Z,100414.83
2023-05-16T17:14:15.117Z,100420.41
2023-05-16T17:16:42.572Z,100422.38
2023-05-16T17:19:10.368Z,100423.37
2023-05-16T17:21:40.737Z,100426.00
2023-05-16T17:24:08.073Z,100426.55
2023-05-16T17:26:35.830Z,100431.16
2023-05-16T17:29:05.212Z,100434.08
2023-05-16T17:31:32.787Z,100437.38
2023-05-16T17:33:59.888Z,100437.52
2023-05-16T17:36:27.196Z,100440.27
2023-05-16T17:38:54.334Z,100450.31
2023-05-16T17:41:22.354Z,100451.23
2023-05-16T17:43:49.590Z,100449.39
2023-05-16T17:46:16.706Z,100454.66
2023-05-16T17:48:44.407Z,100453.08
2023-05-16T17:51:11.623Z,100457.92
2023-05-16T17:53:38.839Z,100461.47
2023-05-16T17:56:06.128Z,100465.86
2023-05-16T17:58:33.320Z,100472.14
2023-05-16T18:01:00.559Z,100483.36
2023-05-16T18:03:27.736Z,100484.49
2023-05-16T18:05:54.960Z,100485.80
2023-05-16T18:08:22.101Z,100482.80
2023-05-16T18:10:52.030Z,100485.84
2023-05-16T18:13:22.297Z,100486.34
2023-05-16T18:15:50.647Z,100487.34
2023-05-16T18:18:18.399Z,100486.78
2023-05-16T18:20:46.348Z,100488.02
2023-05-16T18:23:13.426Z,100495.98
2023-05-16T18:25:40.619Z,100493.10
2023-05-16T18:28:07.937Z,100492.33
2023-05-16T18:30:37.709Z,100497.27
2023-05-16T18:33:06.725Z,100498.09
2023-05-16T18:35:33.918Z,100502.11
2023-05-16T18:43:06.791Z,100503.14
2023-05-16T18:45:34.744Z,100506.08
2023-05-16T18:48:01.967Z,100503.29
2023-05-16T18:50:29.168Z,100505.71
2023-05-16T18:52:57.738Z,100508.89
2023-05-16T18:55:25.145Z,100511.95
2023-05-16T18:57:52.546Z,100511.49
2023-05-16T19:00:22.931Z,100511.11
2023-05-16T19:02:50.642Z,100509.10
2023-05-16T19:05:19.792Z,100511.90
2023-05-16T19:07:47.195Z,100511.67
2023-05-16T19:10:14.392Z,100506.13
2023-05-16T19:12:41.548Z,100508.20
2023-05-16T19:15:09.821Z,100507.83
2023-05-16T19:17:37.128Z,100507.79
2023-05-16T19:20:04.932Z,100507.57
2023-05-16T19:22:32.045Z,100510.77
2023-05-16T19:24:59.139Z,100511.26
2023-05-16T19:27:26.257Z,100513.16
2023-05-16T19:29:53.424Z,100510.46
2023-05-16T19:32:20.586Z,100510.02
2023-05-16T19:34:47.759Z,100501.08
2023-05-16T19:37:14.870Z,100498.88
2023-05-16T19:39:41.992Z,100497.45
2023-05-16T19:42:09.121Z,100497.17
2023-05-16T19:44:36.251Z,100499.69
2023-05-16T19:47:03.433Z,100499.91
2023-05-16T19:49:32.040Z,100505.14
2023-05-16T19:51:59.238Z,100502.54
2023-05-16T19:54:26.442Z,100500.54
2023-05-16T19:56:53.899Z,100503.56
2023-05-16T19:59:22.588Z,100500.66
2023-05-16T20:01:49.688Z,100507.11
2023-05-16T20:04:16.911Z,100505.30
2023-05-16T20:06:44.102Z,100507.92
2023-05-16T20:09:11.547Z,100509.33
2023-05-16T20:11:38.758Z,100506.58
2023-05-16T20:14:06.060Z,100508.42
2023-05-16T20:16:33.224Z,100513.92
2023-05-16T20:19:02.512Z,100515.56
2023-05-16T20:21:29.768Z,100517.65
2023-05-16T20:23:56.878Z,100515.15
2023-05-16T20:26:24.058Z,100520.45
2023-05-16T20:28:51.269Z,100516.80
2023-05-16T20:31:18.551Z,100516.95
2023-05-16T20:33:47.000Z,100515.83
2023-05-16T20:36:14.196Z,100512.61
2023-05-16T20:38:41.370Z,100515.27
2023-05-16T20:41:08.558Z,100514.42
2023-05-16T20:43:35.730Z,100511.39
2023-05-16T20:46:02.999Z,100504.83
2023-05-16T20:48:30.401Z,100508.14
2023-05-16T20:50:57.585Z,100504.38
2023-05-16T20:53:25.269Z,100505.23
2023-05-16T20:55:52.366Z,100510.50
2023-05-16T20:58:19.572Z,100510.31
2023-05-16T21:00:46.693Z,100508.02
2023-05-16T21:03:15.024Z,100504.59
2023-05-16T21:05:42.235Z,100501.54
2023-05-16T21:08:09.368Z,100500.60
2023-05-16T21:10:36.472Z,100504.68
2023-05-16T21:13:03.964Z,100505.18
2023-05-16T21:15:31.281Z,100503.25
2023-05-16T21:17:58.435Z,100499.38
2023-05-16T21:20:25.573Z,100500.36
2023-05-16T21:22:52.690Z,100498.66
2023-05-16T21:25:19.841Z,100496.91
2023-05-16T21:27:46.988Z,100503.80
2023-05-16T21:30:17.059Z,100501.59
2023-05-16T21:32:44.263Z,100498.84
2023-05-16T21:35:11.538Z,100497.40
2023-05-16T21:37:38.695Z,100498.77
2023-05-16T21:40:09.428Z,100494.71
2023-05-16T21:42:36.810Z,100498.27
2023-05-16T21:45:04.326Z,100494.95
2023-05-16T21:47:31.706Z,100490.85
2023-05-16T21:49:58.815Z,100493.06
2023-05-16T21:52:26.065Z,100493.75
2023-05-16T21:54:53.358Z,100495.19
2023-05-16T21:57:20.622Z,100494.83
2023-05-16T21:59:50.804Z,100497.44
2023-05-16T22:02:23.063Z,100494.25
2023-05-16T22:04:51.589Z,100495.31
2023-05-16T22:07:19.810Z,100496.00
2023-05-16T22:09:51.082Z,100500.20
2023-05-16T22:12:18.164Z,100501.42
2023-05-16T22:14:45.482Z,100497.25
2023-05-16T22:17:12.655Z,100491.83
2023-05-16T22:19:39.834Z,100494.73
2023-05-16T22:22:07.077Z,100500.70
2023-05-16T22:24:34.248Z,100495.38
2023-05-16T22:27:01.401Z,100494.79
2023-05-16T22:29:28.646Z,100492.98
2023-05-16T22:31:55.810Z,100494.29
2023-05-16T22:34:22.982Z,100494.46
2023-05-16T22:36:50.125Z,100496.49
2023-05-16T22:39:17.276Z,100497.85
2023-05-16T22:41:44.414Z,100499.67
2023-05-16T22:44:11.531Z,100502.29
2023-05-16T22:46:38.625Z,100500.02
2023-05-16T22:49:05.838Z,100497.83
2023-05-16T22:51:32.965Z,100498.50
2023-05-16T22:54:00.076Z,100494.69
2023-05-16T22:56:27.383Z,100494.40
2023-05-16T22:58:54.530Z,100501.21
2023-05-16T23:01:22.264Z,100503.31
2023-05-16T23:03:49.500Z,100502.08
2023-05-16T23:06:16.989Z,100504.16
2023-05-16T23:08:44.071Z,100503.84
2023-05-16T23:11:11.912Z,100501.84
2023-05-16T23:13:39.137Z,100499.51
2023-05-16T23:16:06.447Z,100497.41
2023-05-16T23:18:33.699Z,100492.66
2023-05-16T23:21:01.016Z,100493.69
2023-05-16T23:23:28.086Z,100501.39
2023-05-16T23:25:55.215Z,100505.92
2023-05-16T23:28:22.794Z,100505.26
2023-05-16T23:30:49.993Z,100505.95
2023-05-16T23:33:17.525Z,100508.63
2023-05-16T23:35:44.755Z,100511.98
2023-05-16T23:38:11.872Z,100509.23
2023-05-16T23:40:39.126Z,100506.53
2023-05-16T23:43:06.756Z,100507.23
2023-05-16T23:45:33.852Z,100509.79
2023-05-16T23:48:01.037Z,100512.79
2023-05-16T23:50:28.228Z,100509.80
2023-05-16T23:52:55.446Z,100511.36
2023-05-16T23:55:22.692Z,100511.33
2023-05-16T23:57:49.928Z,100511.24
